Atkinson, Nebraska
Current Conditions -  °F | °C
As of 2:55 AM on Monday 20 Oct 2014 (Local Time) from KONL Reporting Station
Clear Clear  
Wind Chill: 43°   Ceiling: Unl
Heat Index: 45°   Visibility: 10mi
Dew Point: 40°   Wind: 5mph
Humidity: 80%   Direction: 320°NW
Pressure: 30.06"   Gusts: NA
Location:  42.53°N, 98.98°W
Report Text: KONL 200755Z AUTO 32004KT 10SM CLR 07/04 A3006 RMK AO2 T00740042
Loading
Personal Weather Stations






























Interactive Weather Map
Tropical Storm Tracking
New forecast layout! Learn more

10-Day Weather Forecast

Advertisements
Track Severe Weather on mobile